Time;durP1;ratioP1;P1;durP2;ratioP2;P2;SDS_P1;SDS_P2;PMS_P1;PMS_P2;Temp;Humidity;BMP_temperature;BMP_pressure;BME280_temperature;BME280_humidity;BME280_pressure;Samples;Min_cycle;Max_cycle;Signal;HPM_P1;HPM_P2
2022/08/26 00:01:20;;;;;;;15.75;10.93;;;;;;;21.52;64.27;99754.90;1769216;79;21063;-79
2022/08/26 00:03:46;;;;;;;14.20;10.68;;;;;;;21.50;64.38;99748.38;1739613;81;21580;-77
2022/08/26 00:06:14;;;;;;;14.05;10.25;;;;;;;21.48;64.39;99750.50;1770080;79;21262;-80
2022/08/26 00:08:40;;;;;;;11.28;9.73;;;;;;;21.48;64.47;99751.00;1768259;79;21497;-79
2022/08/26 00:11:09;;;;;;;11.68;10.23;;;;;;;21.44;64.48;99742.58;1742582;81;21128;-79
2022/08/26 00:13:36;;;;;;;12.15;10.95;;;;;;;21.41;64.45;99747.88;1736032;82;21548;-79
2022/08/26 00:16:03;;;;;;;11.68;9.85;;;;;;;21.38;64.62;99742.98;1744409;81;20930;-82
2022/08/26 00:18:30;;;;;;;12.47;10.80;;;;;;;21.37;64.64;99740.50;1730507;81;21134;-80
2022/08/26 00:20:58;;;;;;;13.35;11.25;;;;;;;21.36;64.74;99746.45;1762642;80;21086;-81
2022/08/26 00:23:25;;;;;;;12.23;10.35;;;;;;;21.35;65.10;99735.88;1762230;80;20993;-81
2022/08/26 00:25:52;;;;;;;12.80;9.55;;;;;;;21.35;64.97;99748.84;1759623;81;21572;-77
2022/08/26 00:28:19;;;;;;;12.90;9.63;;;;;;;21.33;65.35;99736.64;1762816;80;20977;-77
2022/08/26 00:30:48;;;;;;;12.85;9.80;;;;;;;21.32;66.06;99741.20;1763187;81;21102;-77
2022/08/26 00:33:16;;;;;;;13.78;10.65;;;;;;;21.31;65.43;99738.77;1754921;80;21087;-79
2022/08/26 00:35:43;;;;;;;12.50;10.48;;;;;;;21.31;65.22;99730.66;1748471;81;21103;-78
2022/08/26 00:38:10;;;;;;;16.25;9.73;;;;;;;21.31;65.19;99736.06;1733557;81;21078;-80
2022/08/26 00:40:41;;;;;;;13.22;10.20;;;;;;;21.31;65.11;99732.01;1760453;81;21003;-78
2022/08/26 00:43:07;;;;;;;15.90;11.35;;;;;;;21.30;65.14;99734.41;1759596;81;21133;-80
2022/08/26 00:45:46;;;;;;;11.22;10.08;;;;;;;21.29;65.15;99735.48;1759366;81;21039;-78
2022/08/26 00:48:13;;;;;;;13.68;10.82;;;;;;;21.27;65.16;99731.66;1756525;80;21061;-80
2022/08/26 00:50:42;;;;;;;15.40;9.75;;;;;;;21.26;65.04;99727.30;1759413;80;21035;-79
2022/08/26 00:53:20;;;;;;;14.25;10.93;;;;;;;21.25;65.05;99731.59;1757987;81;21491;-76
2022/08/26 00:55:39;;;;;;;15.28;10.60;;;;;;;21.24;65.25;99730.78;1746402;81;22170;-79
2022/08/26 00:58:06;;;;;;;15.93;10.90;;;;;;;21.22;65.29;99736.95;1761515;80;20981;-80
2022/08/26 01:00:34;;;;;;;11.83;10.70;;;;;;;21.19;65.54;99732.04;1750275;81;21036;-80
2022/08/26 01:03:02;;;;;;;12.78;10.93;;;;;;;21.17;65.55;99731.42;1759022;80;20977;-79
2022/08/26 01:05:29;;;;;;;11.10;10.08;;;;;;;21.13;66.04;99733.81;1758020;81;21052;-80
2022/08/26 01:07:55;;;;;;;15.48;10.48;;;;;;;21.10;66.26;99730.22;1793258;78;21514;-79
2022/08/26 01:10:27;;;;;;;11.45;10.18;;;;;;;21.07;66.20;99728.52;1786444;78;21009;-79
2022/08/26 01:13:04;;;;;;;14.95;10.58;;;;;;;21.05;66.37;99730.10;1807926;78;21411;-78
2022/08/26 01:15:38;;;;;;;12.82;11.50;;;;;;;21.00;66.71;99725.42;1800970;78;21041;-80
2022/08/26 01:18:04;;;;;;;;;;;;;;;20.95;67.31;99730.70;1809939;78;21578;-77
2022/08/26 01:20:47;;;;;;;13.45;9.90;;;;;;;20.95;67.23;99728.00;1763537;81;21435;-80
2022/08/26 01:23:13;;;;;;;11.38;10.03;;;;;;;21.02;67.30;99725.19;1773059;79;21163;-79
2022/08/26 01:25:45;;;;;;;19.25;12.00;;;;;;;20.99;66.96;99724.30;1764869;79;21032;-80
2022/08/26 01:28:20;;;;;;;13.78;10.63;;;;;;;20.98;67.26;99721.33;1765046;81;21015;-81
2022/08/26 01:30:47;;;;;;;12.73;10.60;;;;;;;20.98;67.15;99729.43;1764347;81;21609;-79
2022/08/26 01:33:17;;;;;;;13.62;11.57;;;;;;;21.00;67.02;99723.27;1752332;79;21753;-81
2022/08/26 01:35:45;;;;;;;12.13;10.80;;;;;;;21.00;67.00;99718.67;1764960;79;21035;-81
2022/08/26 01:38:11;;;;;;;12.58;11.28;;;;;;;21.01;66.85;99724.38;1755693;79;21090;-80
2022/08/26 01:40:39;;;;;;;14.07;11.28;;;;;;;21.01;67.29;99723.03;1760198;81;21511;-80
2022/08/26 01:43:06;;;;;;;13.75;10.63;;;;;;;20.98;67.09;99722.67;1763077;80;21036;-80
2022/08/26 01:45:34;;;;;;;14.73;10.58;;;;;;;20.95;67.20;99722.60;1763598;81;21214;-81
2022/08/26 01:48:03;;;;;;;13.15;11.15;;;;;;;20.93;67.19;99717.97;1764696;81;21492;-79
2022/08/26 01:50:31;;;;;;;12.50;11.12;;;;;;;20.92;67.10;99718.20;1764729;79;21518;-81
2022/08/26 01:53:05;;;;;;;11.73;10.55;;;;;;;20.87;67.14;99710.82;1765295;81;21071;-80
2022/08/26 01:55:31;;;;;;;12.93;10.15;;;;;;;20.82;67.27;99706.65;1765434;79;21534;-79
2022/08/26 01:57:58;;;;;;;13.55;10.93;;;;;;;20.79;67.25;99712.00;1819842;78;21744;-78
2022/08/26 02:00:25;;;;;;;12.55;11.22;;;;;;;20.76;67.45;99704.90;1802359;78;21472;-75
2022/08/26 02:03:15;;;;;;;15.28;11.25;;;;;;;20.71;67.39;99706.97;1800212;78;20989;-77
2022/08/26 02:05:23;;;;;;;12.35;11.12;;;;;;;20.67;67.46;99712.55;1798890;78;21028;-76
2022/08/26 02:07:49;;;;;;;12.78;10.72;;;;;;;20.62;67.58;99713.77;1809151;78;21044;-79
2022/08/26 02:10:16;;;;;;;15.23;11.88;;;;;;;20.62;67.70;99711.07;1807279;78;21192;-77
2022/08/26 02:12:43;;;;;;;15.88;11.08;;;;;;;20.67;67.68;99703.09;1816570;78;21489;-78
2022/08/26 02:15:10;;;;;;;14.25;10.55;;;;;;;20.64;67.69;99702.75;1813657;78;21325;-78
2022/08/26 02:17:42;;;;;;;12.20;10.58;;;;;;;20.61;67.76;99702.70;1792135;79;21004;-79
2022/08/26 02:20:11;;;;;;;13.43;11.40;;;;;;;20.59;67.57;99704.27;1800596;79;21031;-81
2022/08/26 02:22:38;;;;;;;13.10;10.58;;;;;;;20.58;67.59;99701.23;1811911;78;21183;-83
2022/08/26 02:25:21;;;;;;;14.73;10.82;;;;;;;20.55;67.50;99701.72;1800761;79;21520;-82
2022/08/26 02:27:48;;;;;;;13.28;11.60;;;;;;;20.53;67.66;99704.34;1803460;78;21081;-82
2022/08/26 02:30:24;;;;;;;17.37;11.18;;;;;;;20.50;67.62;99704.30;1812252;78;21009;-77
2022/08/26 02:32:50;;;;;;;14.60;11.70;;;;;;;20.47;67.59;99706.09;1785177;79;21052;-78
2022/08/26 02:35:19;;;;;;;14.53;11.70;;;;;;;20.45;67.65;99711.45;1808481;78;21122;-78
2022/08/26 02:37:45;;;;;;;12.60;11.40;;;;;;;20.43;67.61;99714.37;1803372;78;21500;-78
2022/08/26 02:40:13;;;;;;;13.28;11.22;;;;;;;20.40;67.74;99708.92;1800525;79;21024;-78
2022/08/26 02:42:40;;;;;;;12.30;10.78;;;;;;;20.38;67.76;99704.83;1800445;79;21005;-80
2022/08/26 02:45:09;;;;;;;13.95;11.70;;;;;;;20.36;67.85;99701.54;1800401;79;21571;-80
2022/08/26 02:47:38;;;;;;;18.80;11.45;;;;;;;20.32;67.89;99708.43;1792195;78;21114;-77
2022/08/26 02:50:06;;;;;;;15.50;11.33;;;;;;;20.28;67.73;99711.30;1821175;78;21520;-80
2022/08/26 02:52:33;;;;;;;12.43;11.08;;;;;;;20.25;67.64;99710.44;1808788;78;21484;-80
2022/08/26 02:54:59;;;;;;;13.95;11.48;;;;;;;20.23;67.82;99720.10;1809626;78;21030;-79
2022/08/26 02:57:26;;;;;;;13.68;10.70;;;;;;;20.20;67.73;99718.70;1799189;79;21020;-78
2022/08/26 03:01:32;;;;;;;16.67;11.28;;;;;;;20.26;68.03;99712.88;1841760;76;22579;-79
2022/08/26 03:04:00;;;;;;;16.02;11.22;;;;;;;20.27;67.60;99723.16;1751495;80;21065;-79
2022/08/26 03:06:26;;;;;;;12.50;10.58;;;;;;;20.23;67.59;99720.91;1768810;78;21109;-81
2022/08/26 03:08:52;;;;;;;14.65;10.72;;;;;;;20.20;67.68;99722.75;1734137;81;20974;-82
2022/08/26 03:11:19;;;;;;;14.28;10.88;;;;;;;20.19;67.66;99722.44;1759241;80;21529;-81
2022/08/26 03:13:45;;;;;;;12.65;11.28;;;;;;;20.20;67.71;99719.20;1788770;80;21571;-80
2022/08/26 03:16:12;;;;;;;12.40;11.08;;;;;;;20.18;67.69;99719.43;1774673;80;20894;-79
2022/08/26 03:18:39;;;;;;;13.05;10.05;;;;;;;20.15;67.56;99725.30;1781779;78;21011;-81
2022/08/26 03:21:11;;;;;;;14.47;11.88;;;;;;;20.12;67.51;99728.98;1761169;80;21036;-82
2022/08/26 03:23:38;;;;;;;12.78;10.85;;;;;;;20.08;67.65;99725.92;1754075;81;21006;-78
2022/08/26 03:26:05;;;;;;;13.95;11.50;;;;;;;20.06;67.75;99728.03;1766630;80;21587;-77
2022/08/26 03:28:31;;;;;;;13.30;10.55;;;;;;;20.04;67.72;99719.36;1779696;78;22166;-78
2022/08/26 03:30:58;;;;;;;12.88;10.03;;;;;;;20.02;67.71;99724.16;1774666;79;21172;-78
2022/08/26 03:33:24;;;;;;;11.12;10.00;;;;;;;20.02;67.75;99725.51;1768824;80;21034;-80
2022/08/26 03:35:51;;;;;;;12.75;11.15;;;;;;;20.02;67.71;99726.85;1780460;78;21482;-79
2022/08/26 03:38:20;;;;;;;11.73;10.00;;;;;;;20.02;67.77;99726.32;1780422;78;21550;-79
2022/08/26 03:40:47;;;;;;;11.25;9.90;;;;;;;20.10;67.76;99732.44;1747835;81;21077;-78
2022/08/26 03:43:14;;;;;;;15.38;10.95;;;;;;;20.21;67.54;99737.86;1751426;80;21095;-79
2022/08/26 03:45:41;;;;;;;12.25;10.95;;;;;;;20.23;67.68;99730.36;1757224;80;21055;-79
2022/08/26 03:48:08;;;;;;;11.65;9.98;;;;;;;20.25;67.52;99734.71;1743119;80;21056;-79
2022/08/26 03:50:34;;;;;;;16.95;10.80;;;;;;;20.27;67.44;99733.95;1777093;79;21139;-80
2022/08/26 03:53:02;;;;;;;13.38;9.95;;;;;;;20.30;67.43;99741.05;1776758;80;21530;-80
2022/08/26 03:55:32;;;;;;;15.38;10.88;;;;;;;20.34;67.34;99737.34;1751280;80;21124;-80
2022/08/26 03:57:59;;;;;;;11.43;10.30;;;;;;;20.34;67.19;99730.09;1781592;80;21037;-79
2022/08/26 04:00:26;;;;;;;20.52;17.12;;;;;;;20.43;67.15;99739.47;1748516;81;21125;-81
2022/08/26 04:02:52;;;;;;;13.25;12.05;;;;;;;20.46;66.94;99742.25;1807950;78;21057;-83
2022/08/26 04:05:20;;;;;;;13.53;11.83;;;;;;;20.49;66.91;99729.62;1800741;78;21018;-83
2022/08/26 04:07:47;;;;;;;12.20;10.03;;;;;;;20.56;66.75;99730.88;1813456;78;21082;-82
2022/08/26 04:10:16;;;;;;;12.18;10.88;;;;;;;20.59;66.65;99716.89;1820376;78;21017;-80
2022/08/26 04:12:42;;;;;;;14.70;10.98;;;;;;;20.68;66.61;99726.85;1802677;77;21017;-79
2022/08/26 04:15:12;;;;;;;12.68;11.03;;;;;;;20.73;66.24;99717.00;1815845;78;21569;-81
2022/08/26 04:17:39;;;;;;;12.60;9.78;;;;;;;20.80;65.78;99719.56;1794119;78;21537;-80
2022/08/26 04:20:07;;;;;;;16.97;10.85;;;;;;;20.81;65.96;99718.52;1811267;78;21095;-80
2022/08/26 04:22:33;;;;;;;18.27;10.43;;;;;;;20.81;65.71;99717.17;1821124;78;20978;-78
2022/08/26 04:25:01;;;;;;;24.10;12.23;;;;;;;20.81;65.69;99721.22;1813112;78;20987;-82
2022/08/26 04:27:27;;;;;;;14.60;11.60;;;;;;;20.82;65.62;99718.80;1816540;77;20930;-80
2022/08/26 04:29:54;;;;;;;19.15;11.45;;;;;;;20.85;65.42;99714.28;1815781;77;21041;-80
2022/08/26 04:32:21;;;;;;;12.88;10.23;;;;;;;20.88;65.13;99711.63;1816487;78;21463;-77
2022/08/26 04:34:47;;;;;;;18.25;10.30;;;;;;;20.90;64.94;99714.41;1824358;78;21069;-81
2022/08/26 04:37:15;;;;;;;15.68;10.75;;;;;;;20.92;64.85;99710.94;1801684;78;21107;-77
2022/08/26 04:39:41;;;;;;;11.78;10.13;;;;;;;20.96;64.72;99711.30;1792064;78;20948;-77
2022/08/26 04:42:07;;;;;;;15.93;11.25;;;;;;;21.03;65.08;99716.55;1794139;78;21009;-78
2022/08/26 04:44:35;;;;;;;17.07;10.25;;;;;;;21.08;64.45;99712.63;1795148;78;21150;-79
2022/08/26 04:47:01;;;;;;;16.20;10.68;;;;;;;21.13;64.08;99708.66;1819459;78;21489;-79
2022/08/26 04:49:28;;;;;;;13.58;10.30;;;;;;;21.18;64.03;99710.94;1820500;78;21013;-79
2022/08/26 04:51:54;;;;;;;16.00;9.45;;;;;;;21.24;63.78;99706.46;1800623;78;21014;-81
2022/08/26 04:54:21;;;;;;;18.60;9.98;;;;;;;21.30;63.63;99705.50;1812588;78;21066;-80
2022/08/26 04:56:48;;;;;;;12.90;9.25;;;;;;;21.36;63.88;99703.72;1750258;81;21093;-80
2022/08/26 04:59:16;;;;;;;10.85;8.98;;;;;;;21.42;63.94;99705.45;1811650;78;21493;-80
2022/08/26 05:01:47;;;;;;;11.78;9.30;;;;;;;21.48;63.20;99705.06;1796312;78;21049;-79
2022/08/26 05:04:15;;;;;;;12.45;8.58;;;;;;;21.54;62.81;99707.64;1792998;79;21092;-81
2022/08/26 05:06:42;;;;;;;13.48;8.30;;;;;;;21.59;62.25;99706.39;1801382;79;21522;-78
2022/08/26 05:09:09;;;;;;;11.55;8.48;;;;;;;21.65;61.86;99709.98;1794075;79;21204;-81
2022/08/26 05:11:37;;;;;;;12.68;9.50;;;;;;;21.70;61.19;99707.92;1810635;79;21037;-79
2022/08/26 05:14:04;;;;;;;11.38;8.93;;;;;;;21.75;61.93;99713.41;1813148;79;21092;-80
2022/08/26 05:16:32;;;;;;;11.88;8.18;;;;;;;21.77;61.23;99713.47;1806382;79;21092;-79
2022/08/26 05:18:58;;;;;;;11.83;8.68;;;;;;;21.82;60.51;99715.98;1812880;79;21006;-79
2022/08/26 05:21:26;;;;;;;11.78;8.63;;;;;;;21.82;60.22;99711.92;1811642;79;21517;-79
2022/08/26 05:23:53;;;;;;;13.45;9.30;;;;;;;21.82;60.28;99709.22;1801534;78;21026;-77
2022/08/26 05:26:23;;;;;;;11.80;8.25;;;;;;;21.86;59.85;99709.83;1797778;78;21064;-79
2022/08/26 05:28:51;;;;;;;14.25;9.13;;;;;;;21.91;59.53;99707.23;1806918;78;21046;-81
2022/08/26 05:31:20;;;;;;;13.48;8.53;;;;;;;21.95;59.34;99702.97;1800377;78;21025;-79
2022/08/26 05:33:47;;;;;;;14.33;7.92;;;;;;;22.01;60.14;99705.23;1795674;77;21040;-80
2022/08/26 05:36:16;;;;;;;15.58;8.30;;;;;;;22.08;59.25;99710.47;1796845;78;20927;-79
2022/08/26 05:38:43;;;;;;;15.48;8.63;;;;;;;22.14;58.26;99706.81;1803015;78;21425;-78
2022/08/26 05:41:20;;;;;;;18.32;8.63;;;;;;;22.20;58.18;99712.59;1788925;77;21545;-79
2022/08/26 05:43:46;;;;;;;10.93;8.40;;;;;;;22.23;58.24;99707.20;1801133;79;21057;-79
2022/08/26 05:46:13;;;;;;;14.40;9.23;;;;;;;22.28;58.09;99705.44;1804311;79;21083;-81
2022/08/26 05:48:41;;;;;;;11.73;8.78;;;;;;;22.35;58.16;99712.05;1772787;78;21039;-79
2022/08/26 05:51:09;;;;;;;10.43;8.30;;;;;;;22.43;58.24;99713.53;1800446;78;20978;-78
2022/08/26 05:53:36;;;;;;;12.90;9.15;;;;;;;22.50;57.98;99715.00;1791649;77;21001;-80
2022/08/26 05:56:04;;;;;;;15.00;8.80;;;;;;;22.56;58.28;99707.23;1738737;80;21585;-80
2022/08/26 05:58:31;;;;;;;11.18;8.60;;;;;;;22.62;57.77;99717.61;1777374;79;21119;-79
2022/08/26 06:01:13;;;;;;;12.68;8.28;;;;;;;22.68;57.76;99710.39;1716782;82;21117;-80
2022/08/26 06:03:43;;;;;;;12.13;8.23;;;;;;;22.73;57.85;99713.96;1751249;80;21018;-80
2022/08/26 06:06:18;;;;;;;11.80;8.63;;;;;;;22.78;57.03;99721.36;1735131;81;21075;-79
2022/08/26 06:08:44;;;;;;;12.80;8.08;;;;;;;22.80;57.04;99725.17;1745719;81;21056;-80
2022/08/26 06:11:13;;;;;;;14.25;9.00;;;;;;;22.84;56.92;99719.00;1738786;80;21083;-78
2022/08/26 06:13:41;;;;;;;12.73;8.95;;;;;;;22.90;56.81;99719.89;1776169;79;21090;-78
2022/08/26 06:16:11;;;;;;;12.00;8.60;;;;;;;22.94;56.60;99719.13;1781808;79;21645;-80
2022/08/26 06:18:40;;;;;;;13.95;8.68;;;;;;;23.01;56.18;99715.45;1735722;82;20998;-79
2022/08/26 06:21:21;;;;;;;12.85;8.73;;;;;;;23.05;56.05;99715.25;1738308;80;21090;-80
2022/08/26 06:26:34;;;;;;;12.75;8.75;;;;;;;23.21;56.09;99707.59;1742413;82;21029;-79
2022/08/26 06:29:01;;;;;;;10.85;8.08;;;;;;;23.27;55.90;99707.93;1765620;80;21036;-80
2022/08/26 06:31:28;;;;;;;13.13;8.45;;;;;;;23.33;55.98;99714.23;1743749;82;20999;-80
2022/08/26 06:33:55;;;;;;;15.80;8.60;;;;;;;23.41;55.87;99712.97;1762776;80;21018;-80
2022/08/26 06:36:24;;;;;;;12.68;8.63;;;;;;;23.47;56.01;99714.66;1758928;81;21245;-78
2022/08/26 06:38:52;;;;;;;9.68;8.63;;;;;;;23.50;55.92;99711.45;1718834;82;21004;-78
2022/08/26 06:41:20;;;;;;;13.05;8.88;;;;;;;23.56;55.88;99709.07;1718141;81;21561;-80
2022/08/26 06:43:48;;;;;;;20.40;9.88;;;;;;;23.63;55.91;99704.82;1746244;82;21031;-79
2022/08/26 06:46:16;;;;;;;15.40;9.25;;;;;;;23.68;56.18;99708.41;1734157;81;21030;-79
2022/08/26 06:48:43;;;;;;;14.33;9.75;;;;;;;23.78;55.95;99707.72;1758833;81;21244;-80
2022/08/26 06:51:14;;;;;;;20.82;9.40;;;;;;;23.87;56.02;99703.45;1743421;82;21114;-80
2022/08/26 06:53:44;;;;;;;15.15;10.18;;;;;;;23.95;55.58;99695.38;1771533;80;21027;-81
2022/08/26 06:56:11;;;;;;;14.40;8.90;;;;;;;24.03;55.20;99700.36;1769572;79;21593;-78
2022/08/26 06:58:39;;;;;;;14.30;9.28;;;;;;;24.13;54.85;99699.62;1739624;81;22150;-80
2022/08/26 07:01:23;;;;;;;13.10;9.53;;;;;;;24.20;54.67;99689.35;1755609;79;21326;-81
2022/08/26 07:03:52;;;;;;;14.18;10.08;;;;;;;24.26;54.95;99692.92;1796991;77;21519;-81
2022/08/26 07:06:18;;;;;;;16.25;8.83;;;;;;;24.33;54.53;99691.62;1809568;78;21044;-76
2022/08/26 07:08:49;;;;;;;17.23;9.60;;;;;;;24.43;54.13;99682.73;1810073;78;21044;-79
2022/08/26 07:11:17;;;;;;;15.18;9.38;;;;;;;24.51;54.10;99686.38;1803376;78;21572;-78
2022/08/26 07:13:45;;;;;;;14.50;8.80;;;;;;;24.61;53.82;99692.41;1810723;78;21131;-76
2022/08/26 07:16:13;;;;;;;14.87;9.75;;;;;;;24.69;53.19;99687.83;1802278;78;21033;-78
2022/08/26 07:18:41;;;;;;;16.93;8.05;;;;;;;24.77;53.15;99685.16;1801163;77;21537;-78
2022/08/26 07:21:10;;;;;;;18.02;8.95;;;;;;;24.86;53.02;99694.97;1809032;77;21076;-76
2022/08/26 07:23:37;;;;;;;14.93;8.65;;;;;;;24.93;52.78;99695.56;1815449;77;21021;-79
2022/08/26 07:26:15;;;;;;;16.55;8.90;;;;;;;25.03;52.23;99705.11;1747465;81;21544;-78
2022/08/26 07:28:43;;;;;;;13.30;8.75;;;;;;;25.09;52.19;99701.88;1804189;78;21082;-76
2022/08/26 07:31:11;;;;;;;20.77;9.53;;;;;;;25.13;52.02;99701.66;1807520;77;21696;-76
2022/08/26 07:33:38;;;;;;;13.00;8.00;;;;;;;25.24;51.79;99697.89;1807034;78;21171;-79
2022/08/26 07:36:09;;;;;;;19.98;8.30;;;;;;;25.33;51.57;99693.33;1801695;78;21092;-80
2022/08/26 07:38:36;;;;;;;14.63;8.50;;;;;;;25.42;50.92;99696.62;1747922;80;21073;-76
2022/08/26 07:41:03;;;;;;;19.05;8.95;;;;;;;25.51;50.94;99690.09;1759515;79;21015;-76
2022/08/26 07:43:29;;;;;;;18.12;8.05;;;;;;;25.60;50.98;99683.05;1745573;80;21018;-76
2022/08/26 07:45:56;;;;;;;18.25;9.23;;;;;;;25.70;50.61;99684.42;1772689;79;21041;-75
2022/08/26 07:48:23;;;;;;;15.10;8.25;;;;;;;25.82;50.22;99680.08;1814105;77;21053;-77
2022/08/26 07:50:51;;;;;;;16.55;7.70;;;;;;;25.94;49.77;99682.60;1749874;80;21148;-75
2022/08/26 07:53:18;;;;;;;13.48;7.58;;;;;;;26.06;49.57;99679.05;1804812;77;21076;-77
2022/08/26 07:55:45;;;;;;;17.12;7.90;;;;;;;26.19;48.84;99673.62;1819283;77;21057;-76
2022/08/26 07:58:12;;;;;;;13.80;7.00;;;;;;;26.30;48.31;99671.69;1811681;78;21797;-74
2022/08/26 08:00:38;;;;;;;12.40;7.62;;;;;;;26.43;47.67;99676.57;1800007;78;21112;-77
2022/08/26 08:03:05;;;;;;;14.87;8.33;;;;;;;26.57;47.40;99671.92;1795976;78;22100;-74
2022/08/26 08:05:31;;;;;;;14.10;8.20;;;;;;;26.71;46.72;99666.19;1802521;78;21515;-76
2022/08/26 08:08:02;;;;;;;13.30;7.28;;;;;;;26.84;46.07;99671.05;1806634;79;22303;-77
2022/08/26 08:10:28;;;;;;;17.30;7.53;;;;;;;26.97;45.37;99666.92;1795298;77;21006;-79
2022/08/26 08:12:56;;;;;;;12.73;7.55;;;;;;;27.10;45.04;99664.69;1802128;78;21045;-77
2022/08/26 08:15:26;;;;;;;13.98;7.20;;;;;;;27.21;44.91;99656.17;1798076;77;21234;-78
2022/08/26 08:17:53;;;;;;;15.23;7.28;;;;;;;27.33;44.62;99655.86;1794653;78;21584;-80
2022/08/26 08:20:21;;;;;;;11.75;7.30;;;;;;;27.46;44.35;99651.70;1803358;77;21564;-79
2022/08/26 08:22:48;;;;;;;17.73;7.95;;;;;;;27.57;44.27;99646.45;1804670;78;21045;-79
2022/08/26 08:25:14;;;;;;;20.08;7.70;;;;;;;27.73;44.37;99643.62;1739822;81;21046;-82
2022/08/26 08:27:41;;;;;;;15.72;7.10;;;;;;;27.90;44.30;99640.52;1755118;79;21094;-78
2022/08/26 08:30:09;;;;;;;16.27;6.15;;;;;;;28.07;43.76;99644.18;1732702;80;21026;-80
2022/08/26 08:32:37;;;;;;;16.15;6.10;;;;;;;28.20;43.44;99636.69;1749441;80;21310;-80
2022/08/26 08:35:06;;;;;;;11.73;5.78;;;;;;;28.42;43.05;99638.38;1741902;82;21146;-82
2022/08/26 08:37:34;;;;;;;15.45;6.45;;;;;;;28.58;42.69;99636.88;1753721;80;21074;-82
2022/08/26 08:40:01;;;;;;;14.43;6.25;;;;;;;28.74;42.11;99632.05;1764302;80;21068;-81
2022/08/26 08:42:45;;;;;;;12.47;6.08;;;;;;;28.88;41.78;99633.52;1762672;80;21041;-79
2022/08/26 08:45:36;;;;;;;14.55;6.47;;;;;;;29.03;41.74;99634.69;1712993;82;21077;-77
2022/08/26 08:48:20;;;;;;;17.48;4.92;;;;;;;29.23;41.33;99628.18;1749338;80;21037;-83
2022/08/26 08:50:49;;;;;;;17.80;5.42;;;;;;;29.47;40.10;99624.55;1746019;81;21034;-76
2022/08/26 08:53:33;;;;;;;16.40;5.03;;;;;;;29.73;39.52;99623.64;1757137;80;21763;-77
2022/08/26 08:56:25;;;;;;;9.90;5.25;;;;;;;29.98;38.08;99627.88;1744421;81;21030;-76
2022/08/26 08:59:18;;;;;;;13.13;4.53;;;;;;;30.25;37.22;99620.28;1730726;82;21075;-83
2022/08/26 09:02:08;;;;;;;9.80;4.15;;;;;;;30.55;36.71;99623.58;1761346;80;21116;-79
2022/08/26 09:04:56;;;;;;;10.93;4.40;;;;;;;30.83;35.93;99618.07;1727781;80;21027;-84
2022/08/26 09:07:26;;;;;;;11.60;3.83;;;;;;;31.08;35.69;99619.48;1764556;79;21127;-79
2022/08/26 09:10:00;;;;;;;8.65;4.53;;;;;;;31.38;35.45;99610.33;1739940;80;21047;-80
2022/08/26 09:12:31;;;;;;;8.95;4.80;;;;;;;31.70;35.28;99599.72;1716939;81;21058;-79
2022/08/26 09:15:09;;;;;;;16.70;4.85;;;;;;;32.17;34.96;99601.55;1727644;82;21308;-77
2022/08/26 09:18:23;;;;;;;9.48;4.67;;;;;;;32.73;33.66;99601.95;1803088;77;21033;-82
2022/08/26 09:21:02;;;;;;;11.03;4.90;;;;;;;33.20;33.44;99594.52;1802645;77;21101;-80
2022/08/26 09:23:29;;;;;;;10.95;4.60;;;;;;;33.88;32.96;99597.01;1803220;77;21546;-80
2022/08/26 09:26:00;;;;;;;11.00;4.78;;;;;;;34.41;31.89;99597.66;1771905;80;21070;-84
2022/08/26 09:28:29;;;;;;;12.47;4.25;;;;;;;34.86;31.49;99604.58;1754634;80;21097;-84
2022/08/26 09:31:23;;;;;;;10.72;4.10;;;;;;;35.35;31.03;99590.28;1746223;81;21062;-84
2022/08/26 09:34:17;;;;;;;9.38;4.20;;;;;;;35.78;30.43;99580.23;1715702;80;21070;-83
2022/08/26 09:36:50;;;;;;;10.53;4.08;;;;;;;36.24;29.56;99579.41;1771004;79;21109;-90
2022/08/26 09:39:31;;;;;;;11.53;4.37;;;;;;;36.64;29.14;99571.22;1753762;80;21080;-80
2022/08/26 09:42:16;;;;;;;11.03;4.30;;;;;;;36.98;29.07;99570.52;1795738;79;21092;-82
2022/08/26 09:44:58;;;;;;;12.47;4.62;;;;;;;37.41;28.97;99561.28;1799801;77;20983;-85
2022/08/26 09:47:35;;;;;;;12.73;3.98;;;;;;;37.80;27.87;99563.75;1796494;79;21617;-81
2022/08/26 09:50:32;;;;;;;5.80;3.65;;;;;;;38.23;27.33;99589.02;1728023;80;21061;-86
2022/08/26 09:53:22;;;;;;;6.12;3.25;;;;;;;38.34;26.09;99577.05;1719507;82;21129;-88
2022/08/26 09:55:50;;;;;;;11.83;3.50;;;;;;;38.48;25.98;99566.05;1754995;78;21120;-87
2022/08/26 09:58:36;;;;;;;6.70;3.33;;;;;;;38.86;26.01;99580.63;1706883;80;20980;-90
2022/08/26 10:01:06;;;;;;;6.62;3.05;;;;;;;39.26;25.18;99577.34;1698258;81;21403;-90
2022/08/26 10:03:36;;;;;;;7.65;3.30;;;;;;;39.47;24.21;99567.27;1690067;83;21002;-93
2022/08/26 10:06:22;;;;;;;9.23;3.12;;;;;;;39.55;24.38;99576.55;1689650;83;21108;-95
2022/08/26 10:08:57;;;;;;;8.00;3.20;;;;;;;39.69;24.42;99574.82;1647275;86;21086;-91
2022/08/26 10:11:47;;;;;;;9.43;3.55;;;;;;;39.98;23.99;99575.36;1648714;84;21313;-92
2022/08/26 10:14:32;;;;;;;6.47;2.75;;;;;;;40.20;23.85;99564.02;1660092;85;21216;-87
2022/08/26 10:17:36;;;;;;;6.12;2.77;;;;;;;40.36;23.35;99566.69;1681689;84;21101;-89
2022/08/26 10:20:28;;;;;;;5.47;3.08;;;;;;;40.40;23.05;99561.97;1689736;82;21093;-87
2022/08/26 10:23:00;;;;;;;7.75;3.08;;;;;;;40.51;23.25;99567.71;1692113;82;21006;-91
2022/08/26 10:25:37;;;;;;;9.80;3.75;;;;;;;40.75;23.15;99562.28;1678174;83;21049;-92
2022/08/26 10:28:26;;;;;;;5.72;3.00;;;;;;;40.99;23.04;99561.62;1677943;83;21090;-91
2022/08/26 10:31:04;;;;;;;6.47;3.27;;;;;;;41.20;22.71;99563.30;1663291;86;20980;-90
2022/08/26 10:33:31;;;;;;;5.37;2.98;;;;;;;41.32;22.57;99569.23;1692056;84;21038;-88
2022/08/26 10:36:04;;;;;;;7.67;3.25;;;;;;;41.43;22.11;99573.52;1676602;84;21130;-92
2022/08/26 10:38:34;;;;;;;3.40;2.77;;;;;;;41.54;21.97;99568.87;1686782;82;21065;-89
2022/08/26 10:41:10;;;;;;;4.55;2.75;;;;;;;41.69;21.95;99557.88;1711614;82;21143;-86
2022/08/26 10:43:41;;;;;;;4.97;3.12;;;;;;;41.88;21.76;99567.45;1687354;83;21049;-87
2022/08/26 10:46:15;;;;;;;;;;;;;;;42.03;21.50;99559.98;1688236;85;21054;-86
2022/08/26 10:48:57;;;;;;;3.45;2.83;;;;;;;42.22;21.40;99561.77;1676622;84;20141;-89
2022/08/26 10:51:30;;;;;;;8.18;2.92;;;;;;;42.26;21.49;99559.80;1690274;84;21356;-85
2022/08/26 10:54:04;;;;;;;8.20;3.22;;;;;;;42.53;21.12;99565.20;1691083;84;21097;-84
2022/08/26 10:56:59;;;;;;;6.28;2.83;;;;;;;42.73;20.84;99560.13;1694119;83;20979;-91
2022/08/26 10:59:42;;;;;;;5.87;3.50;;;;;;;42.79;20.75;99560.78;1681080;84;21030;-86
2022/08/26 11:02:36;;;;;;;4.90;2.77;;;;;;;42.81;21.00;99558.39;1681858;83;21549;-87
2022/08/26 11:05:18;;;;;;;6.10;3.27;;;;;;;42.95;20.73;99559.08;1690502;84;21109;-85
2022/08/26 11:07:50;;;;;;;7.10;3.02;;;;;;;43.18;20.52;99556.58;1672476;84;21332;-83
2022/08/26 11:10:25;;;;;;;7.37;2.75;;;;;;;43.41;20.41;99550.69;1660380;85;21010;-85
2022/08/26 11:12:57;;;;;;;7.60;2.77;;;;;;;43.54;20.49;99554.72;1667168;85;21066;-86
2022/08/26 11:15:30;;;;;;;7.47;2.67;;;;;;;43.66;19.98;99554.11;1663173;84;21529;-86
2022/08/26 11:18:02;;;;;;;5.62;2.83;;;;;;;43.68;19.64;99551.74;1664297;84;21485;-86
2022/08/26 11:20:43;;;;;;;7.30;3.00;;;;;;;43.72;19.82;99553.36;1689308;84;21265;-89
2022/08/26 11:23:27;;;;;;;8.88;3.10;;;;;;;43.82;19.37;99550.38;1668782;84;21058;-86
2022/08/26 11:26:13;;;;;;;5.80;2.50;;;;;;;43.90;19.29;99555.38;1691122;83;21039;-82
2022/08/26 11:28:46;;;;;;;7.47;3.17;;;;;;;43.84;18.87;99553.58;1690690;83;22171;-80
2022/08/26 11:31:29;;;;;;;3.58;2.40;;;;;;;43.80;19.22;99559.77;1706168;83;21062;-82
2022/08/26 11:34:05;;;;;;;6.15;3.10;;;;;;;43.95;19.06;99550.19;1697755;83;21270;-79
2022/08/26 11:36:44;;;;;;;5.47;3.25;;;;;;;44.22;19.03;99544.20;1695335;83;20998;-80
2022/08/26 11:39:33;;;;;;;6.83;3.08;;;;;;;44.35;18.90;99555.19;1658316;84;21620;-81
2022/08/26 11:42:41;;;;;;;4.10;3.55;;;;;;;44.41;18.73;99557.56;1663428;84;21073;-83
2022/08/26 11:45:27;;;;;;;6.87;3.72;;;;;;;44.40;18.99;99551.78;1673230;84;21034;-84
2022/08/26 11:47:54;;;;;;;3.30;2.90;;;;;;;44.47;19.59;99555.36;1691342;83;22183;-83